createdAt,value
2022-10-04T00:02:34.901Z,12.37
2022-10-04T00:07:41.956Z,12.28
2022-10-04T00:12:48.672Z,12.32
2022-10-04T00:18:02.625Z,12.32
2022-10-04T00:23:26.629Z,12.29
2022-10-04T00:28:43.850Z,12.24
2022-10-04T00:33:47.965Z,12.27
2022-10-04T00:39:03.131Z,12.22
2022-10-04T00:44:12.089Z,12.31
2022-10-04T00:49:16.317Z,12.22
2022-10-04T00:54:20.753Z,12.30
2022-10-04T00:59:30.858Z,12.21
2022-10-04T01:04:39.853Z,12.23
2022-10-04T01:09:47.948Z,12.26
2022-10-04T01:14:56.804Z,12.22
2022-10-04T01:19:59.813Z,12.13
2022-10-04T01:25:04.714Z,12.15
2022-10-04T01:30:10.231Z,12.11
2022-10-04T01:35:14.392Z,12.18
2022-10-04T01:40:18.683Z,12.08
2022-10-04T01:45:25.370Z,12.15
2022-10-04T01:50:30.993Z,12.15
2022-10-04T01:55:37.115Z,12.26
2022-10-04T02:00:42.580Z,12.17
2022-10-04T02:05:49.214Z,12.26
2022-10-04T02:10:54.991Z,12.21
2022-10-04T02:15:59.191Z,12.11
2022-10-04T02:21:02.340Z,12.15
2022-10-04T02:26:07.200Z,12.11
2022-10-04T02:31:28.517Z,12.08
2022-10-04T02:36:33.312Z,12.14
2022-10-04T02:41:39.463Z,12.13
2022-10-04T02:46:46.259Z,12.18
2022-10-04T02:51:53.162Z,12.10
2022-10-04T02:56:59.038Z,12.18
2022-10-04T03:02:02.775Z,12.20
2022-10-04T03:07:07.804Z,12.30
2022-10-04T03:12:13.834Z,12.23
2022-10-04T03:17:17.869Z,12.32
2022-10-04T03:22:20.940Z,12.18
2022-10-04T03:27:28.719Z,12.13
2022-10-04T03:32:32.319Z,12.18
2022-10-04T03:37:36.704Z,12.15
2022-10-04T03:42:41.697Z,12.13
2022-10-04T03:47:45.591Z,12.08
2022-10-04T03:52:51.242Z,12.17
2022-10-04T03:57:55.653Z,12.19
2022-10-04T04:03:01.865Z,12.20
2022-10-04T04:08:08.256Z,12.21
2022-10-04T04:13:21.332Z,12.30
2022-10-04T04:18:25.333Z,12.29
2022-10-04T04:23:31.171Z,12.31
2022-10-04T04:28:40.650Z,12.27
2022-10-04T04:33:45.340Z,12.29
2022-10-04T04:39:05.835Z,12.36
2022-10-04T04:44:17.874Z,12.35
2022-10-04T04:49:20.892Z,12.32
2022-10-04T04:54:25.764Z,12.32
2022-10-04T04:59:30.173Z,12.28
2022-10-04T05:04:33.100Z,12.40
2022-10-04T05:09:37.306Z,12.33
2022-10-04T05:14:48.435Z,12.29
2022-10-04T05:19:52.397Z,12.38
2022-10-04T05:24:58.002Z,12.38
2022-10-04T05:30:06.285Z,12.35
2022-10-04T05:35:16.127Z,12.46
2022-10-04T05:40:28.888Z,12.45
2022-10-04T05:45:33.238Z,12.49
2022-10-04T05:50:40.647Z,12.47
2022-10-04T05:55:51.264Z,12.55
2022-10-04T06:01:10.621Z,12.58
2022-10-04T06:06:17.560Z,12.67
2022-10-04T06:11:30.213Z,12.68
2022-10-04T06:16:39.779Z,12.58
2022-10-04T06:21:48.407Z,12.85
2022-10-04T06:26:54.865Z,12.86
2022-10-04T06:32:14.411Z,12.87
2022-10-04T06:37:28.523Z,12.85
2022-10-04T06:42:49.215Z,12.92
2022-10-04T06:48:01.027Z,12.79
2022-10-04T06:53:20.660Z,12.78
2022-10-04T06:58:33.599Z,12.96
2022-10-04T07:03:40.627Z,13.03
2022-10-04T07:08:48.844Z,12.98
2022-10-04T07:13:56.571Z,13.01
2022-10-04T07:19:08.421Z,13.04
2022-10-04T07:24:13.571Z,13.04
2022-10-04T07:29:23.912Z,13.04
2022-10-04T07:34:30.785Z,13.20
2022-10-04T07:39:35.482Z,13.38
2022-10-04T07:44:39.811Z,13.59
2022-10-04T07:49:44.177Z,13.62
2022-10-04T07:54:51.563Z,13.75
2022-10-04T07:59:58.813Z,13.74
2022-10-04T08:05:11.086Z,13.91
2022-10-04T08:10:22.646Z,13.89
2022-10-04T08:15:36.950Z,14.00
2022-10-04T08:20:46.228Z,14.03
2022-10-04T08:25:54.935Z,14.20
2022-10-04T08:31:05.382Z,14.26
2022-10-04T08:36:17.184Z,14.29
2022-10-04T08:41:47.242Z,14.35
2022-10-04T08:47:15.293Z,14.42
2022-10-04T08:52:35.072Z,14.49
2022-10-04T08:57:52.190Z,14.57
2022-10-04T09:03:10.146Z,14.63
2022-10-04T09:08:23.522Z,14.61
2022-10-04T09:13:35.229Z,14.64
2022-10-04T09:18:52.129Z,14.60
2022-10-04T09:24:07.901Z,14.62
2022-10-04T09:29:24.265Z,14.74
2022-10-04T09:34:37.197Z,14.78
2022-10-04T09:39:52.345Z,14.72
2022-10-04T09:45:15.812Z,14.71
2022-10-04T09:50:32.029Z,14.63
2022-10-04T09:55:42.890Z,14.56
2022-10-04T10:00:51.670Z,14.58
2022-10-04T10:06:08.450Z,14.59
2022-10-04T10:11:32.519Z,14.68
2022-10-04T10:16:44.122Z,14.76
2022-10-04T10:21:52.611Z,14.87
2022-10-04T10:27:03.611Z,15.63
2022-10-04T10:32:21.753Z,15.79
2022-10-04T10:37:35.780Z,15.64
2022-10-04T10:42:52.092Z,15.51
2022-10-04T10:48:01.800Z,15.48
2022-10-04T10:53:29.273Z,15.59
2022-10-04T10:58:56.164Z,16.29
2022-10-04T11:04:08.672Z,16.42
2022-10-04T11:09:38.667Z,17.85
2022-10-04T11:14:56.441Z,17.45
2022-10-04T11:20:11.659Z,17.52
2022-10-04T11:25:25.435Z,17.67
2022-10-04T11:30:39.243Z,17.14
2022-10-04T11:35:58.240Z,16.63
2022-10-04T11:41:10.923Z,17.45
2022-10-04T11:46:21.699Z,16.62
2022-10-04T11:51:57.578Z,18.02
2022-10-04T11:57:16.043Z,18.80
2022-10-04T12:02:37.787Z,19.22
2022-10-04T12:07:51.995Z,19.80
2022-10-04T12:13:06.331Z,18.22
2022-10-04T12:18:17.903Z,17.57
2022-10-04T12:23:42.365Z,17.33
2022-10-04T12:28:52.979Z,16.93
2022-10-04T12:34:09.009Z,16.74
2022-10-04T12:39:20.717Z,16.86
2022-10-04T12:44:29.376Z,16.71
2022-10-04T12:49:38.146Z,16.44
2022-10-04T12:54:44.693Z,16.35
2022-10-04T12:59:54.915Z,16.14
2022-10-04T13:05:03.224Z,16.12
2022-10-04T13:10:26.011Z,16.03
2022-10-04T13:17:24.889Z,16.17
2022-10-04T13:21:00.324Z,16.95
2022-10-04T13:26:15.413Z,17.33
2022-10-04T13:31:24.567Z,16.99
2022-10-04T13:36:32.081Z,16.70
2022-10-04T13:41:45.602Z,16.40
2022-10-04T13:47:00.933Z,16.20
2022-10-04T13:52:32.835Z,16.36
2022-10-04T13:57:43.761Z,16.21
2022-10-04T14:02:57.128Z,16.28
2022-10-04T14:08:12.449Z,16.22
2022-10-04T14:13:36.904Z,16.12
2022-10-04T14:19:00.856Z,15.90
2022-10-04T14:24:22.453Z,15.82
2022-10-04T14:29:46.459Z,15.74
2022-10-04T14:34:58.243Z,15.74
2022-10-04T14:40:11.322Z,15.72
2022-10-04T14:45:21.683Z,15.74
2022-10-04T14:50:28.355Z,15.69
2022-10-04T14:55:38.259Z,15.63
2022-10-04T15:00:57.270Z,15.64
2022-10-04T15:06:06.623Z,15.67
2022-10-04T15:11:12.186Z,15.58
2022-10-04T15:16:21.742Z,15.52
2022-10-04T15:21:33.950Z,15.42
2022-10-04T15:26:49.995Z,15.38
2022-10-04T15:32:04.279Z,15.44
2022-10-04T15:37:15.215Z,15.38
2022-10-04T15:42:24.952Z,15.30
2022-10-04T15:47:31.021Z,15.31
2022-10-04T15:52:44.205Z,15.34
2022-10-04T15:58:03.915Z,15.19
2022-10-04T16:03:18.171Z,15.15
2022-10-04T16:08:27.080Z,15.11
2022-10-04T16:13:38.806Z,15.03
2022-10-04T16:18:46.032Z,14.98
2022-10-04T16:23:49.803Z,15.00
2022-10-04T16:29:13.657Z,14.96
2022-10-04T16:34:28.252Z,15.04
2022-10-04T16:39:54.161Z,15.00
2022-10-04T16:45:00.928Z,14.82
2022-10-04T16:50:05.623Z,14.76
2022-10-04T16:55:22.251Z,14.75
2022-10-04T17:00:35.153Z,14.75
2022-10-04T17:05:47.463Z,14.76
2022-10-04T17:11:17.406Z,14.68
2022-10-04T17:16:23.776Z,14.64
2022-10-04T17:21:32.912Z,14.49
2022-10-04T17:26:51.829Z,14.38
2022-10-04T17:31:58.241Z,14.47
2022-10-04T17:37:05.553Z,14.39
2022-10-04T17:42:15.371Z,14.36
2022-10-04T17:47:23.943Z,14.37
2022-10-04T17:52:52.576Z,14.32
2022-10-04T17:58:00.762Z,14.17
2022-10-04T18:03:09.691Z,14.17
2022-10-04T18:08:17.858Z,14.15
2022-10-04T18:13:25.092Z,14.17
2022-10-04T18:18:30.308Z,14.17
2022-10-04T18:23:39.404Z,14.08
2022-10-04T18:28:43.521Z,14.01
2022-10-04T18:33:50.386Z,13.90
2022-10-04T18:39:05.329Z,14.03
2022-10-04T18:44:15.453Z,14.00
2022-10-04T18:49:21.761Z,13.88
2022-10-04T18:54:30.814Z,13.86
2022-10-04T18:59:58.979Z,13.79
2022-10-04T19:05:10.327Z,13.73
2022-10-04T19:10:26.649Z,13.69
2022-10-04T19:15:39.489Z,13.73
2022-10-04T19:20:46.785Z,13.63
2022-10-04T19:26:26.255Z,13.43
2022-10-04T19:31:22.413Z,13.50
2022-10-04T19:36:46.474Z,13.52
2022-10-04T19:41:55.152Z,13.51
2022-10-04T19:47:01.095Z,13.43
2022-10-04T19:52:16.318Z,13.39
2022-10-04T19:57:25.667Z,13.42
2022-10-04T20:02:28.862Z,13.38
2022-10-04T20:07:31.954Z,13.32
2022-10-04T20:12:38.508Z,13.23
2022-10-04T20:17:42.234Z,13.35
2022-10-04T20:22:55.401Z,13.26
2022-10-04T20:28:03.867Z,13.25
2022-10-04T20:33:07.023Z,13.19
2022-10-04T20:38:31.853Z,13.13
2022-10-04T20:43:54.010Z,13.09
2022-10-04T20:48:57.048Z,13.17
2022-10-04T20:54:00.256Z,13.13
2022-10-04T20:59:05.194Z,13.08
2022-10-04T21:04:15.344Z,13.07
2022-10-04T21:09:18.491Z,13.12
2022-10-04T21:14:26.545Z,13.06
2022-10-04T21:19:53.530Z,13.05
2022-10-04T21:24:57.354Z,13.15
2022-10-04T21:30:02.427Z,13.11
2022-10-04T21:35:06.075Z,13.05
2022-10-04T21:40:09.533Z,13.03
2022-10-04T21:45:14.084Z,12.96
2022-10-04T21:50:17.120Z,12.96
2022-10-04T21:55:20.143Z,12.95
2022-10-04T22:00:24.646Z,12.90
2022-10-04T22:05:27.731Z,12.79
2022-10-04T22:10:31.197Z,12.68
2022-10-04T22:15:35.897Z,12.65
2022-10-04T22:20:38.954Z,12.67
2022-10-04T22:25:41.983Z,12.59
2022-10-04T22:30:46.800Z,12.60
2022-10-04T22:35:50.070Z,12.53
2022-10-04T22:40:53.099Z,12.48
2022-10-04T22:45:57.715Z,12.46
2022-10-04T22:51:00.818Z,12.43
2022-10-04T22:56:03.932Z,12.40
2022-10-04T23:01:13.470Z,12.27
2022-10-04T23:06:16.852Z,12.42
2022-10-04T23:11:19.878Z,12.35
2022-10-04T23:16:24.467Z,12.35
2022-10-04T23:21:31.519Z,12.27
2022-10-04T23:26:37.408Z,12.24
2022-10-04T23:31:41.913Z,12.35
2022-10-04T23:36:45.221Z,12.22
2022-10-04T23:41:48.484Z,12.21
2022-10-04T23:46:52.980Z,12.31
2022-10-04T23:51:58.687Z,12.31
2022-10-04T23:57:01.707Z,12.22
